If you wish to contribute or participate in the discussions about articles you are invited to join SKYbrary as a registered user

 Actions

La Florida Airport

From SKYbrary Wiki

SCSE
Airport
ICAO: SCSE – IATA: LSC
Summary
Name La Florida Airport
Region South America and Caribbean
Territory Chile CL.gif
Location La Antena, Coquimbo
Serving La Serena
Elevation 146.609 m
481 ft
481 ft146.609 m
Type medium airport
Coordinates 29° 54' 58.44" S, 71° 11' 58.28" W
Runways
Designator Length Width Surface ROPS
11/29 1938 m6,358.268 ft
45 m147.638 ft
ASP no/no


METAR
Observation SCSE 150300Z VRB01KT 9999 BKN050 15/10 Q1019
Station La Serena
Date/Time 15 October 2019 03:00:00
Wind direction °
Wind speed 01 kts
Lowest cloud amount broken clouds
Temperature 15°C
Dew point 10°C
Humidity 72%
QNH 1019 hPa
Weather condition n/a

Airport in La Serena, Chile.

Climatology

Cool desert climate (Köppen climate classification BWk)

Maps

Terrain

Loading map...

Airport Layout

Loading map...


Accidents & Serious Incidents at or in vicinity of SCSE

None on SKYbrary